VIPER1 EFKA-EFKA

Flight info

Callsign VIPER1
Flight time 0h 46m
Altitude 40000
Route DCT TRAG09 DCT
Aircraft F35/M-SDGIRUY/C

Departure

Time 2026-04-11 07:52
Airport Kauhava Airfield (EFKA)

Arrival

Time 2026-04-11 08:38
Airport Kauhava Airfield (EFKA)
Time Latitude Longitude Altitude Speed Heading
2026-04-11 07:37 63.11532 23.04881 139 ft 0 kts 357°
2026-04-11 07:46 63.11534 23.04881 139 ft 3 kts 357°
2026-04-11 07:46 63.11586 23.04915 139 ft 9 kts
2026-04-11 07:46 63.11649 23.04912 139 ft 8 kts 358°
2026-04-11 07:47 63.11728 23.04902 139 ft 12 kts 355°
2026-04-11 07:47 63.11829 23.04883 140 ft 16 kts 352°
2026-04-11 07:47 63.11936 23.04864 139 ft 15 kts 356°
2026-04-11 07:47 63.12073 23.04856 139 ft 27 kts 354°
2026-04-11 07:48 63.12261 23.04839 140 ft 27 kts 358°
2026-04-11 07:48 63.12381 23.04827 140 ft 25 kts 357°
2026-04-11 07:48 63.12551 23.04807 141 ft 23 kts 358°
2026-04-11 07:48 63.12714 23.04785 141 ft 26 kts 357°
2026-04-11 07:49 63.12906 23.04763 144 ft 29 kts 359°
2026-04-11 07:49 63.13112 23.04745 148 ft 29 kts 355°
2026-04-11 07:49 63.13279 23.04792 151 ft 21 kts 42°
2026-04-11 07:49 63.13271 23.05017 150 ft 13 kts 128°
2026-04-11 07:50 63.13220 23.05084 150 ft 0 kts 177°
2026-04-11 07:51 63.13189 23.05089 149 ft 35 kts 176°
2026-04-11 07:52 63.12273 23.05184 253 ft 205 kts 178°
2026-04-11 07:52 63.11000 23.04457 2407 ft 208 kts 241°
2026-04-11 07:52 63.10629 23.00952 4682 ft 270 kts 259°
2026-04-11 07:52 63.10379 22.96428 7976 ft 309 kts 264°
2026-04-11 07:53 63.10160 22.91692 12059 ft 312 kts 264°
2026-04-11 07:53 63.09922 22.86766 15920 ft 368 kts 264°
2026-04-11 07:53 63.09602 22.80272 16127 ft 468 kts 264°
2026-04-11 07:53 63.09210 22.72575 16222 ft 537 kts 263°
2026-04-11 07:54 63.08772 22.64040 16254 ft 575 kts 263°
2026-04-11 07:54 63.08318 22.55216 16314 ft 581 kts 263°
2026-04-11 07:54 63.07863 22.46363 16376 ft 581 kts 263°
2026-04-11 07:54 63.07408 22.37512 16438 ft 581 kts 263°
2026-04-11 07:55 63.06955 22.28721 16499 ft 567 kts 263°
2026-04-11 07:55 63.06515 22.20191 16566 ft 556 kts 263°
2026-04-11 07:55 63.06084 22.11846 16622 ft 527 kts 263°
2026-04-11 07:55 63.05695 22.04172 17235 ft 482 kts 261°
2026-04-11 07:56 63.05349 21.97116 17230 ft 445 kts 261°
2026-04-11 07:56 63.05036 21.90530 17175 ft 419 kts 261°
2026-04-11 07:56 63.04720 21.83913 17161 ft 467 kts 262°
2026-04-11 07:56 63.04346 21.76231 17181 ft 536 kts 262°
2026-04-11 07:57 63.03958 21.68282 17207 ft 505 kts 262°
2026-04-11 07:57 63.03603 21.60800 17196 ft 477 kts 262°
2026-04-11 07:57 63.02941 21.53942 17199 ft 441 kts 245°
2026-04-11 07:57 63.01399 21.48422 17227 ft 413 kts 223°
2026-04-11 07:58 62.98947 21.44347 17372 ft 491 kts 207°
2026-04-11 07:58 62.95557 21.40776 17497 ft 564 kts 199°
2026-04-11 07:58 62.91996 21.38436 17625 ft 491 kts 187°
2026-04-11 07:58 62.88651 21.38530 17661 ft 482 kts 166°
2026-04-11 07:59 62.85607 21.41364 17745 ft 479 kts 144°
2026-04-11 07:59 62.83332 21.46613 17763 ft 479 kts 121°
2026-04-11 07:59 62.82071 21.53355 17730 ft 483 kts 110°
2026-04-11 07:59 62.80983 21.60268 17722 ft 480 kts 110°
2026-04-11 08:00 62.79910 21.67228 17714 ft 481 kts 108°
2026-04-11 08:00 62.79188 21.74648 17682 ft 527 kts 96°
2026-04-11 08:00 62.79220 21.82943 17712 ft 558 kts 88°
2026-04-11 08:00 62.79428 21.91438 17755 ft 561 kts 90°
2026-04-11 08:01 62.79432 21.99956 17774 ft 561 kts 90°
2026-04-11 08:01 62.80056 22.08366 17817 ft 566 kts 71°
2026-04-11 08:01 62.82288 22.15456 17661 ft 578 kts 44°
2026-04-11 08:01 62.85671 22.20117 17741 ft 562 kts 19°
2026-04-11 08:02 62.89397 22.20400 17624 ft 525 kts 351°
2026-04-11 08:02 62.92822 22.18218 17454 ft 523 kts 342°
2026-04-11 08:02 62.96424 22.15481 17475 ft 561 kts 341°
2026-04-11 08:02 63.00125 22.12539 17498 ft 570 kts 341°
2026-04-11 08:03 63.03651 22.09643 17529 ft 518 kts 341°
2026-04-11 08:03 63.07032 22.06936 17489 ft 520 kts 341°
2026-04-11 08:03 63.10462 22.04180 17517 ft 515 kts 340°
2026-04-11 08:03 63.13702 22.01544 17547 ft 502 kts 341°
2026-04-11 08:04 63.17049 21.98817 17525 ft 509 kts 341°
2026-04-11 08:04 63.20368 21.96137 17489 ft 505 kts 341°
2026-04-11 08:04 63.23687 21.93446 17446 ft 506 kts 341°
2026-04-11 08:04 63.26918 21.90816 17448 ft 499 kts 341°
2026-04-11 08:05 63.30020 21.87535 17565 ft 469 kts 310°
2026-04-11 08:05 63.31286 21.81151 17753 ft 462 kts 287°
2026-04-11 08:05 63.32288 21.74227 17585 ft 490 kts 283°
2026-04-11 08:05 63.32397 21.66875 18211 ft 469 kts 245°
2026-04-11 08:06 63.30622 21.60117 18083 ft 544 kts 229°
2026-04-11 08:06 63.28099 21.54419 17514 ft 492 kts 214°
2026-04-11 08:06 63.25092 21.50831 17553 ft 496 kts 197°
2026-04-11 08:06 63.21692 21.49428 17609 ft 503 kts 179°
2026-04-11 08:07 63.18191 21.50348 17601 ft 512 kts 165°
2026-04-11 08:07 63.14733 21.52577 17558 ft 531 kts 161°
2026-04-11 08:07 63.11181 21.55239 17549 ft 534 kts 160°
2026-04-11 08:08 63.04238 21.60743 17502 ft 531 kts 159°
2026-04-11 08:08 63.00819 21.63512 17512 ft 508 kts 159°
2026-04-11 08:08 62.97489 21.66195 17511 ft 503 kts 159°
2026-04-11 08:08 62.94206 21.68864 17506 ft 508 kts 159°
2026-04-11 08:09 62.90859 21.71566 17497 ft 509 kts 159°
2026-04-11 08:09 62.87562 21.74232 17511 ft 515 kts 159°
2026-04-11 08:09 62.84204 21.76961 17493 ft 495 kts 159°
2026-04-11 08:09 62.80977 21.79556 17494 ft 498 kts 159°
2026-04-11 08:10 62.77719 21.82370 17514 ft 513 kts 151°
2026-04-11 08:10 62.74864 21.87016 17527 ft 498 kts 134°
2026-04-11 08:10 62.72866 21.93229 17548 ft 508 kts 117°
2026-04-11 08:10 62.71862 22.00578 17546 ft 508 kts 98°
2026-04-11 08:11 62.71975 22.08198 17549 ft 496 kts 81°
2026-04-11 08:11 62.73190 22.15375 17564 ft 520 kts 62°
2026-04-11 08:11 62.75478 22.21530 17562 ft 527 kts 43°
2026-04-11 08:11 62.78477 22.25611 17557 ft 496 kts 24°
2026-04-11 08:12 62.81819 22.27378 17572 ft 507 kts
2026-04-11 08:12 62.85256 22.26823 17567 ft 501 kts 349°
2026-04-11 08:12 62.88767 22.24761 17546 ft 507 kts 345°
2026-04-11 08:12 62.92119 22.22389 17507 ft 511 kts 342°
2026-04-11 08:13 62.95462 22.19871 17504 ft 510 kts 342°
2026-04-11 08:13 62.98805 22.17297 17497 ft 495 kts 342°
2026-04-11 08:13 63.02071 22.14739 17498 ft 516 kts 341°
2026-04-11 08:13 63.05445 22.12082 17494 ft 508 kts 341°
2026-04-11 08:14 63.08729 22.09485 17494 ft 512 kts 341°
2026-04-11 08:14 63.12116 22.06810 17470 ft 507 kts 341°
2026-04-11 08:14 63.15434 22.04179 17497 ft 504 kts 341°
2026-04-11 08:14 63.18783 22.01523 17499 ft 511 kts 341°
2026-04-11 08:15 63.22094 21.98873 17508 ft 507 kts 341°
2026-04-11 08:15 63.25413 21.96240 17509 ft 512 kts 341°
2026-04-11 08:15 63.28730 21.93602 17496 ft 506 kts 341°
2026-04-11 08:15 63.31795 21.90334 17692 ft 465 kts 325°
2026-04-11 08:16 63.34062 21.85572 17572 ft 442 kts 311°
2026-04-11 08:16 63.35772 21.79472 17561 ft 499 kts 291°
2026-04-11 08:16 63.36642 21.71375 17609 ft 554 kts 269°
2026-04-11 08:16 63.36133 21.63380 17548 ft 501 kts 249°
2026-04-11 08:17 63.34531 21.56350 17552 ft 521 kts 231°
2026-04-11 08:17 63.31946 21.50843 17561 ft 507 kts 212°
2026-04-11 08:17 63.28707 21.47491 17607 ft 524 kts 192°
2026-04-11 08:17 63.25121 21.46724 17594 ft 512 kts 174°
2026-04-11 08:18 63.21648 21.48255 17552 ft 504 kts 163°
2026-04-11 08:18 63.18268 21.50578 17522 ft 506 kts 160°
2026-04-11 08:18 63.14929 21.53164 17503 ft 510 kts 159°
2026-04-11 08:18 63.11612 21.55824 17495 ft 503 kts 159°
2026-04-11 08:19 63.08286 21.58530 17488 ft 514 kts 159°
2026-04-11 08:19 63.04973 21.61236 17490 ft 507 kts 159°
2026-04-11 08:19 63.01665 21.63950 17487 ft 508 kts 159°
2026-04-11 08:19 62.98350 21.66675 17486 ft 509 kts 159°
2026-04-11 08:20 62.95008 21.69407 17500 ft 515 kts 159°
2026-04-11 08:20 62.91722 21.72107 17495 ft 512 kts 158°
2026-04-11 08:20 62.88402 21.74801 17510 ft 508 kts 159°
2026-04-11 08:20 62.85038 21.77540 17505 ft 505 kts 159°
2026-04-11 08:21 62.81794 21.80192 17507 ft 507 kts 158°
2026-04-11 08:21 62.78692 21.83866 17550 ft 509 kts 142°
2026-04-11 08:21 62.76318 21.89154 17763 ft 479 kts 126°
2026-04-11 08:21 62.74851 21.96042 17655 ft 514 kts 107°
2026-04-11 08:22 62.74465 22.03833 17608 ft 525 kts 88°
2026-04-11 08:22 62.75255 22.11551 17585 ft 511 kts 70°
2026-04-11 08:22 62.77082 22.18102 17600 ft 517 kts 51°
2026-04-11 08:22 62.79831 22.23132 17571 ft 518 kts 32°
2026-04-11 08:23 62.83102 22.25872 17588 ft 501 kts 14°
2026-04-11 08:23 62.86601 22.26223 17584 ft 517 kts 354°
2026-04-11 08:23 62.90107 22.24460 17535 ft 509 kts 346°
2026-04-11 08:23 62.93360 22.22328 17554 ft 477 kts 343°
2026-04-11 08:24 62.96589 22.19921 17498 ft 518 kts 341°
2026-04-11 08:24 63.00069 22.17195 17497 ft 526 kts 341°
2026-04-11 08:24 63.03395 22.14580 17500 ft 500 kts 341°
2026-04-11 08:24 63.06760 22.11915 17495 ft 519 kts 340°
2026-04-11 08:25 63.10083 22.09277 17503 ft 505 kts 341°
2026-04-11 08:25 63.13431 22.06600 17496 ft 504 kts 341°
2026-04-11 08:25 63.16773 22.03929 17547 ft 506 kts 340°
2026-04-11 08:25 63.19946 22.01289 17527 ft 492 kts 341°
2026-04-11 08:26 63.23309 21.98707 17474 ft 510 kts 341°
2026-04-11 08:26 63.26618 21.96058 17472 ft 498 kts 341°
2026-04-11 08:26 63.29800 21.93154 17493 ft 498 kts 329°
2026-04-11 08:26 63.32573 21.88014 17534 ft 517 kts 310°
2026-04-11 08:27 63.34409 21.81369 17567 ft 506 kts 290°
2026-04-11 08:27 63.35169 21.73777 17551 ft 504 kts 271°
2026-04-11 08:27 63.34776 21.66044 17568 ft 509 kts 250°
2026-04-11 08:27 63.33267 21.58909 17582 ft 506 kts 233°
2026-04-11 08:28 63.30865 21.53363 17637 ft 495 kts 213°
2026-04-11 08:28 63.27768 21.49860 17585 ft 506 kts 196°
2026-04-11 08:28 63.24260 21.48747 17579 ft 515 kts 177°
2026-04-11 08:28 63.20776 21.50057 17544 ft 502 kts 164°
2026-04-11 08:29 63.17430 21.52311 17523 ft 495 kts 160°
2026-04-11 08:29 63.14199 21.54768 17493 ft 506 kts 159°
2026-04-11 08:29 63.11024 21.57299 17490 ft 498 kts 159°
2026-04-11 08:29 63.07523 21.60139 17499 ft 535 kts 159°
2026-04-11 08:30 63.04198 21.62887 17494 ft 480 kts 157°
2026-04-11 08:30 63.01394 21.66551 17559 ft 495 kts 139°
2026-04-11 08:30 62.99007 21.72701 17552 ft 523 kts 121°
2026-04-11 08:30 62.97721 21.79694 17581 ft 516 kts 104°
2026-04-11 08:31 62.97285 21.87985 17511 ft 559 kts 95°
2026-04-11 08:31 62.97162 21.95544 16718 ft 461 kts 93°
2026-04-11 08:31 62.97101 22.03091 15984 ft 502 kts 92°
2026-04-11 08:31 62.97112 22.10479 15286 ft 467 kts 91°
2026-04-11 08:32 62.97203 22.17492 14566 ft 482 kts 87°
2026-04-11 08:32 62.97553 22.24776 13804 ft 455 kts 85°
2026-04-11 08:32 62.98010 22.31308 13094 ft 428 kts 83°
2026-04-11 08:32 62.98318 22.35645 12643 ft 442 kts 83°
2026-04-11 08:33 62.98815 22.42166 11824 ft 422 kts 82°
2026-04-11 08:33 62.99311 22.48542 11055 ft 432 kts 81°
2026-04-11 08:33 62.99864 22.54941 10197 ft 418 kts 81°
2026-04-11 08:33 63.00350 22.61257 9512 ft 414 kts 82°
2026-04-11 08:34 63.00823 22.67289 8758 ft 393 kts 82°
2026-04-11 08:34 63.01289 22.73142 8004 ft 384 kts 82°
2026-04-11 08:34 63.01763 22.79004 7268 ft 390 kts 81°
2026-04-11 08:34 63.02240 22.84837 6535 ft 387 kts 82°
2026-04-11 08:35 63.02706 22.90714 5814 ft 387 kts 82°
2026-04-11 08:35 63.03170 22.96377 5121 ft 324 kts 81°
2026-04-11 08:35 63.03622 23.00392 4546 ft 254 kts 72°
2026-04-11 08:35 63.04633 23.04068 3703 ft 304 kts 47°
2026-04-11 08:36 63.06502 23.05580 2831 ft 291 kts
2026-04-11 08:36 63.08808 23.05541 1669 ft 371 kts 359°
2026-04-11 08:36 63.11403 23.05287 1166 ft 392 kts 358°
2026-04-11 08:36 63.13534 23.06598 1082 ft 284 kts 89°
2026-04-11 08:37 63.12203 23.08267 1265 ft 245 kts 173°
2026-04-11 08:37 63.10532 23.08634 1265 ft 240 kts 173°
2026-04-11 08:37 63.09228 23.07603 1003 ft 188 kts 252°
2026-04-11 08:37 63.09815 23.05568 609 ft 214 kts 348°
2026-04-11 08:38 63.11152 23.05334 246 ft 170 kts 357°
2026-04-11 08:38 63.12132 23.05222 140 ft 108 kts 356°
2026-04-11 08:38 63.12701 23.05137 140 ft 56 kts 355°
2026-04-11 08:38 63.12862 23.05085 143 ft 11 kts 321°
2026-04-11 08:39 63.12911 23.04952 143 ft 11 kts 304°
2026-04-11 08:39 63.12931 23.04806 144 ft 9 kts 243°
2026-04-11 08:39 63.12834 23.04771 143 ft 22 kts 176°
2026-04-11 08:39 63.12639 23.04793 141 ft 31 kts 176°
2026-04-11 08:40 63.12539 23.04906 140 ft 12 kts 87°
2026-04-11 08:40 63.12541 23.04998 139 ft 5 kts 86°
2026-04-11 08:40 63.12504 23.05155 140 ft 19 kts 164°
2026-04-11 08:40 63.12329 23.05174 140 ft 27 kts 176°
2026-04-11 08:41 63.12138 23.05201 137 ft 27 kts 176°
2026-04-11 08:41 63.11949 23.05219 141 ft 27 kts 177°
2026-04-11 08:41 63.11767 23.05243 142 ft 25 kts 176°
2026-04-11 08:41 63.11590 23.05267 140 ft 25 kts 177°
2026-04-11 08:42 63.11508 23.05111 139 ft 17 kts 275°
2026-04-11 08:42 63.11525 23.04927 139 ft 5 kts 329°
2026-04-11 08:42 63.11537 23.04925 139 ft 0 kts 358°